createdAt,value
2022-08-16T00:00:38.781Z,13.84
2022-08-16T00:01:34.269Z,13.89
2022-08-16T00:02:31.091Z,13.87
2022-08-16T00:03:30.930Z,13.89
2022-08-16T00:04:30.940Z,13.79
2022-08-16T00:05:35.178Z,13.73
2022-08-16T00:06:30.967Z,13.66
2022-08-16T00:07:30.982Z,13.69
2022-08-16T00:08:36.973Z,13.62
2022-08-16T00:09:31.016Z,13.69
2022-08-16T00:10:31.026Z,13.69
2022-08-16T00:11:31.045Z,13.70
2022-08-16T00:12:31.060Z,13.63
2022-08-16T00:13:31.082Z,13.59
2022-08-16T00:14:31.090Z,13.67
2022-08-16T00:15:51.371Z,13.70
2022-08-16T00:17:00.717Z,13.63
2022-08-16T00:17:56.494Z,13.55
2022-08-16T00:18:31.662Z,13.69
2022-08-16T00:19:41.935Z,13.69
2022-08-16T00:20:31.182Z,13.78
2022-08-16T00:21:31.200Z,13.66
2022-08-16T00:22:31.210Z,13.77
2022-08-16T00:23:34.644Z,13.71
2022-08-16T00:24:32.942Z,13.79
2022-08-16T00:26:33.786Z,13.66
2022-08-16T00:26:36.487Z,13.69
2022-08-16T00:27:31.289Z,13.71
2022-08-16T00:28:31.309Z,13.67
2022-08-16T00:29:31.324Z,13.63
2022-08-16T00:30:31.339Z,13.67
2022-08-16T00:31:59.883Z,13.66
2022-08-16T00:32:32.686Z,13.73
2022-08-16T00:33:31.385Z,13.70
2022-08-16T00:34:44.607Z,13.60
2022-08-16T00:35:31.413Z,13.69
2022-08-16T00:36:31.431Z,13.63
2022-08-16T00:37:56.862Z,13.66
2022-08-16T00:38:40.492Z,13.66
2022-08-16T00:39:31.552Z,13.66
2022-08-16T00:40:34.254Z,13.69
2022-08-16T00:41:31.504Z,13.64
2022-08-16T00:42:32.291Z,13.63
2022-08-16T00:43:42.785Z,13.70
2022-08-16T00:44:32.587Z,13.66
2022-08-16T00:45:31.568Z,13.70
2022-08-16T00:46:34.087Z,13.62
2022-08-16T00:47:31.600Z,13.60
2022-08-16T00:48:32.128Z,13.57
2022-08-16T00:49:39.543Z,13.57
2022-08-16T00:50:36.586Z,13.59
2022-08-16T00:51:31.662Z,13.55
2022-08-16T00:52:31.682Z,13.57
2022-08-16T00:53:31.695Z,13.48
2022-08-16T00:54:32.881Z,13.57
2022-08-16T00:55:38.079Z,13.46
2022-08-16T00:56:57.741Z,13.42
2022-08-16T00:57:44.510Z,13.45
2022-08-16T00:58:34.674Z,13.51
2022-08-16T00:59:32.790Z,13.57
2022-08-16T01:00:31.895Z,13.48
2022-08-16T01:01:31.818Z,13.54
2022-08-16T01:02:33.381Z,13.42
2022-08-16T01:03:34.992Z,13.46
2022-08-16T01:04:31.869Z,13.48
2022-08-16T01:05:32.951Z,13.42
2022-08-16T01:06:39.564Z,13.38
2022-08-16T01:07:50.899Z,13.38
2022-08-16T01:08:34.982Z,13.33
2022-08-16T01:09:33.668Z,13.33
2022-08-16T01:10:33.429Z,13.33
2022-08-16T01:11:31.971Z,13.38
2022-08-16T01:12:31.982Z,13.29
2022-08-16T01:13:32.002Z,13.33
2022-08-16T01:14:32.011Z,13.28
2022-08-16T01:15:32.029Z,13.26
2022-08-16T01:16:32.055Z,13.20
2022-08-16T01:17:36.705Z,13.20
2022-08-16T01:18:39.076Z,13.29
2022-08-16T01:19:32.092Z,13.28
2022-08-16T01:20:32.113Z,13.26
2022-08-16T01:21:33.626Z,13.23
2022-08-16T01:22:48.000Z,13.20
2022-08-16T01:23:58.178Z,13.28
2022-08-16T01:24:53.456Z,13.28
2022-08-16T01:25:33.962Z,13.22
2022-08-16T01:26:34.974Z,13.10
2022-08-16T01:27:34.643Z,13.05
2022-08-16T01:28:34.723Z,13.10
2022-08-16T01:29:56.775Z,13.14
2022-08-16T01:30:32.258Z,13.14
2022-08-16T01:31:32.271Z,13.04
2022-08-16T01:32:34.171Z,13.05
2022-08-16T01:33:33.128Z,13.03
2022-08-16T01:34:32.316Z,13.07
2022-08-16T01:35:35.379Z,13.00
2022-08-16T01:36:32.348Z,12.95
2022-08-16T01:37:35.568Z,12.95
2022-08-16T01:38:32.379Z,12.95
2022-08-16T01:39:35.411Z,12.93
2022-08-16T01:40:32.508Z,12.95
2022-08-16T01:41:32.423Z,12.89
2022-08-16T01:42:32.434Z,12.96
2022-08-16T01:43:32.452Z,13.00
2022-08-16T01:44:37.780Z,12.92
2022-08-16T01:45:40.894Z,12.95
2022-08-16T01:46:39.696Z,13.01
2022-08-16T01:47:32.952Z,13.08
2022-08-16T01:48:32.526Z,13.05
2022-08-16T01:49:43.054Z,13.04
2022-08-16T01:50:42.604Z,12.96
2022-08-16T01:51:32.567Z,13.00
2022-08-16T01:52:32.586Z,12.96
2022-08-16T01:53:32.601Z,13.00
2022-08-16T01:54:32.619Z,13.00
2022-08-16T01:55:35.652Z,13.05
2022-08-16T01:56:32.643Z,13.03
2022-08-16T01:57:32.657Z,12.95
2022-08-16T01:58:32.672Z,13.05
2022-08-16T01:59:32.794Z,13.00
2022-08-16T02:00:32.713Z,13.01
2022-08-16T02:01:32.814Z,13.01
2022-08-16T02:02:32.734Z,13.01
2022-08-16T02:03:32.749Z,12.97
2022-08-16T02:04:49.371Z,13.00
2022-08-16T02:05:32.782Z,12.90
2022-08-16T02:06:34.593Z,12.97
2022-08-16T02:07:32.816Z,13.01
2022-08-16T02:08:34.195Z,12.90
2022-08-16T02:09:33.832Z,12.96
2022-08-16T02:10:34.018Z,12.96
2022-08-16T02:11:47.697Z,12.92
2022-08-16T02:12:49.955Z,12.89
2022-08-16T02:13:33.097Z,12.95
2022-08-16T02:14:32.912Z,12.92
2022-08-16T02:15:35.488Z,12.85
2022-08-16T02:16:32.943Z,12.93
2022-08-16T02:17:32.955Z,12.85
2022-08-16T02:18:32.971Z,12.90
2022-08-16T02:19:58.790Z,12.93
2022-08-16T02:20:33.004Z,12.86
2022-08-16T02:21:33.016Z,12.92
2022-08-16T02:22:35.167Z,12.96
2022-08-16T02:23:33.047Z,12.93
2022-08-16T02:24:40.988Z,12.83
2022-08-16T02:25:51.129Z,12.92
2022-08-16T02:26:34.392Z,12.92
2022-08-16T02:27:33.105Z,12.90
2022-08-16T02:28:33.121Z,12.89
2022-08-16T02:29:33.137Z,12.89
2022-08-16T02:30:35.805Z,12.89
2022-08-16T02:32:04.030Z,12.85
2022-08-16T02:32:50.365Z,12.85
2022-08-16T02:33:44.024Z,12.87
2022-08-16T02:34:40.871Z,12.78
2022-08-16T02:35:33.225Z,12.79
2022-08-16T02:36:47.526Z,12.83
2022-08-16T02:37:51.247Z,12.78
2022-08-16T02:38:33.270Z,12.72
2022-08-16T02:39:33.337Z,12.72
2022-08-16T02:40:33.300Z,12.74
2022-08-16T02:41:37.367Z,12.77
2022-08-16T02:42:33.352Z,12.71
2022-08-16T02:43:33.443Z,12.71
2022-08-16T02:44:33.464Z,12.77
2022-08-16T02:45:33.378Z,12.78
2022-08-16T02:46:33.858Z,12.79
2022-08-16T02:47:33.399Z,12.72
2022-08-16T02:48:33.418Z,12.82
2022-08-16T02:49:59.269Z,12.75
2022-08-16T02:50:54.053Z,12.74
2022-08-16T02:51:33.462Z,12.78
2022-08-16T02:52:33.488Z,12.71
2022-08-16T02:53:33.499Z,12.77
2022-08-16T02:54:33.503Z,12.77
2022-08-16T02:55:41.309Z,12.77
2022-08-16T02:56:33.544Z,12.72
2022-08-16T02:57:33.555Z,12.67
2022-08-16T02:58:33.567Z,12.75
2022-08-16T02:59:39.692Z,12.67
2022-08-16T03:00:36.153Z,12.72
2022-08-16T03:01:37.072Z,12.71
2022-08-16T03:02:33.623Z,12.67
2022-08-16T03:04:28.718Z,12.67
2022-08-16T03:04:50.585Z,12.67
2022-08-16T03:05:33.677Z,12.65
2022-08-16T03:06:42.140Z,12.62
2022-08-16T03:07:37.062Z,12.64
2022-08-16T03:08:51.007Z,12.65
2022-08-16T03:09:33.728Z,12.70
2022-08-16T03:10:34.225Z,12.62
2022-08-16T03:11:35.360Z,12.64
2022-08-16T03:12:36.831Z,12.64
2022-08-16T03:13:39.980Z,12.54
2022-08-16T03:14:33.799Z,12.54
2022-08-16T03:15:33.826Z,12.54
2022-08-16T03:16:39.108Z,12.53
2022-08-16T03:17:33.849Z,12.54
2022-08-16T03:18:40.171Z,12.47
2022-08-16T03:19:42.194Z,12.60
2022-08-16T03:20:34.295Z,12.60
2022-08-16T03:21:37.678Z,12.52
2022-08-16T03:22:33.914Z,12.49
2022-08-16T03:23:35.530Z,12.59
2022-08-16T03:24:33.946Z,12.54
2022-08-16T03:25:41.121Z,12.50
2022-08-16T03:26:33.979Z,12.52
2022-08-16T03:27:33.995Z,12.50
2022-08-16T03:28:34.005Z,12.46
2022-08-16T03:29:34.030Z,12.50
2022-08-16T03:30:34.039Z,12.45
2022-08-16T03:31:34.891Z,12.46
2022-08-16T03:32:34.081Z,12.46
2022-08-16T03:33:34.078Z,12.52
2022-08-16T03:34:34.093Z,12.47
2022-08-16T03:35:34.111Z,12.39
2022-08-16T03:36:34.126Z,12.47
2022-08-16T03:38:01.803Z,12.38
2022-08-16T03:38:35.269Z,12.47
2022-08-16T03:39:34.198Z,12.38
2022-08-16T03:40:34.392Z,12.49
2022-08-16T03:41:49.713Z,12.50
2022-08-16T03:42:34.209Z,12.47
2022-08-16T03:43:51.874Z,12.47
2022-08-16T03:44:43.279Z,12.47
2022-08-16T03:45:34.250Z,12.39
2022-08-16T03:46:47.217Z,12.52
2022-08-16T03:47:34.479Z,12.50
2022-08-16T03:48:36.903Z,12.53
2022-08-16T03:49:36.527Z,12.56
2022-08-16T03:50:34.322Z,12.53
2022-08-16T03:51:34.343Z,12.53
2022-08-16T03:52:34.357Z,12.57
2022-08-16T03:53:37.703Z,12.49
2022-08-16T03:54:35.625Z,12.56
2022-08-16T03:55:45.534Z,12.47
2022-08-16T03:56:34.415Z,12.41
2022-08-16T03:57:35.562Z,12.46
2022-08-16T03:58:34.449Z,12.45
2022-08-16T03:59:34.456Z,12.38
2022-08-16T04:00:35.876Z,12.46
2022-08-16T04:01:34.575Z,12.41
2022-08-16T04:02:34.497Z,12.41
2022-08-16T04:03:34.515Z,12.38
2022-08-16T04:04:34.529Z,12.35
2022-08-16T04:05:34.547Z,12.39
2022-08-16T04:06:34.564Z,12.31
2022-08-16T04:07:34.574Z,12.32
2022-08-16T04:08:34.734Z,12.34
2022-08-16T04:09:35.218Z,12.31
2022-08-16T04:10:36.759Z,12.24
2022-08-16T04:11:37.610Z,12.23
2022-08-16T04:12:54.376Z,12.28
2022-08-16T04:14:00.368Z,12.31
2022-08-16T04:14:34.752Z,12.28
2022-08-16T04:15:34.786Z,12.31
2022-08-16T04:16:34.701Z,12.37
2022-08-16T04:17:35.141Z,12.35
2022-08-16T04:18:34.734Z,12.29
2022-08-16T04:19:34.742Z,12.38
2022-08-16T04:20:36.959Z,12.35
2022-08-16T04:21:34.869Z,12.38
2022-08-16T04:22:34.788Z,12.38
2022-08-16T04:23:34.799Z,12.38
2022-08-16T04:24:34.819Z,12.41
2022-08-16T04:25:34.832Z,12.39
2022-08-16T04:26:34.849Z,12.42
2022-08-16T04:27:34.864Z,12.42
2022-08-16T04:28:55.681Z,12.37
2022-08-16T04:29:44.158Z,12.34
2022-08-16T04:30:35.794Z,12.35
2022-08-16T04:31:34.923Z,12.24
2022-08-16T04:32:35.634Z,12.23
2022-08-16T04:33:35.142Z,12.34
2022-08-16T04:34:34.963Z,12.29
2022-08-16T04:35:34.975Z,12.21
2022-08-16T04:36:34.995Z,12.24
2022-08-16T04:37:42.283Z,12.27
2022-08-16T04:38:35.020Z,12.24
2022-08-16T04:39:46.118Z,12.23
2022-08-16T04:40:35.088Z,12.21
2022-08-16T04:41:37.540Z,12.24
2022-08-16T04:42:35.879Z,12.19
2022-08-16T04:43:35.098Z,12.19
2022-08-16T04:44:53.736Z,12.19
2022-08-16T04:45:36.245Z,12.17
2022-08-16T04:47:02.456Z,12.23
2022-08-16T04:47:35.661Z,12.21
2022-08-16T04:48:35.160Z,12.27
2022-08-16T04:49:38.432Z,12.28
2022-08-16T04:50:35.188Z,12.28
2022-08-16T04:51:35.967Z,12.29
2022-08-16T04:52:36.073Z,12.32
2022-08-16T04:53:35.245Z,12.32
2022-08-16T04:54:35.249Z,12.34
2022-08-16T04:55:38.122Z,12.34
2022-08-16T04:56:35.274Z,12.35
2022-08-16T04:57:35.306Z,12.29
2022-08-16T04:58:43.611Z,12.37
2022-08-16T04:59:35.321Z,12.37
2022-08-16T05:00:35.335Z,12.39
2022-08-16T05:01:57.758Z,12.34
2022-08-16T05:02:42.024Z,12.32
2022-08-16T05:03:35.392Z,12.42
2022-08-16T05:04:35.400Z,12.34
2022-08-16T05:05:45.515Z,12.37
2022-08-16T05:06:42.301Z,12.41
2022-08-16T05:07:35.539Z,12.38
2022-08-16T05:08:35.453Z,12.47
2022-08-16T05:09:36.586Z,12.47
2022-08-16T05:10:35.531Z,12.38
2022-08-16T05:11:35.491Z,12.42
2022-08-16T05:12:35.506Z,12.37
2022-08-16T05:13:41.761Z,12.39
2022-08-16T05:14:45.911Z,12.45
2022-08-16T05:15:35.549Z,12.39
2022-08-16T05:16:35.563Z,12.47
2022-08-16T05:17:35.574Z,12.47
2022-08-16T05:18:35.591Z,12.45
2022-08-16T05:19:35.997Z,12.47
2022-08-16T05:20:45.451Z,12.46
2022-08-16T05:21:38.221Z,12.47
2022-08-16T05:22:35.651Z,12.47
2022-08-16T05:23:35.665Z,12.38
2022-08-16T05:24:35.678Z,12.39
2022-08-16T05:25:41.004Z,12.38
2022-08-16T05:26:35.706Z,12.41
2022-08-16T05:27:42.706Z,12.38
2022-08-16T05:28:37.733Z,12.42
2022-08-16T05:29:57.725Z,12.41
2022-08-16T05:30:37.193Z,12.35
2022-08-16T05:31:35.781Z,12.41
2022-08-16T05:32:36.610Z,12.47
2022-08-16T05:33:35.814Z,12.41
2022-08-16T05:34:35.826Z,12.41
2022-08-16T05:35:35.837Z,12.38
2022-08-16T05:36:36.751Z,12.47
2022-08-16T05:37:39.789Z,12.47
2022-08-16T05:38:39.252Z,12.56
2022-08-16T05:39:37.639Z,12.47
2022-08-16T05:40:35.909Z,12.47
2022-08-16T05:41:45.083Z,12.47
2022-08-16T05:42:36.170Z,12.46
2022-08-16T05:43:43.424Z,12.45
2022-08-16T05:44:35.961Z,12.41
2022-08-16T05:45:36.471Z,12.42
2022-08-16T05:46:35.994Z,12.45
2022-08-16T05:47:43.378Z,12.37
2022-08-16T05:48:36.021Z,12.37
2022-08-16T05:49:38.499Z,12.49
2022-08-16T05:50:36.050Z,12.39
2022-08-16T05:51:38.497Z,12.46
2022-08-16T05:52:36.078Z,12.49
2022-08-16T05:53:36.403Z,12.45
2022-08-16T05:54:36.108Z,12.59
2022-08-16T05:55:40.586Z,12.54
2022-08-16T05:56:37.516Z,12.54
2022-08-16T05:57:36.158Z,12.57
2022-08-16T05:58:36.168Z,12.56
2022-08-16T05:59:36.188Z,12.56
2022-08-16T06:00:36.190Z,12.56
2022-08-16T06:01:38.080Z,12.64
2022-08-16T06:02:36.227Z,12.64
2022-08-16T06:03:36.239Z,12.67
2022-08-16T06:04:37.743Z,12.67
2022-08-16T06:05:36.299Z,12.75
2022-08-16T06:06:36.284Z,12.71
2022-08-16T06:07:36.306Z,12.85
2022-08-16T06:08:42.224Z,12.90
2022-08-16T06:09:42.725Z,12.89
2022-08-16T06:10:36.334Z,12.96
2022-08-16T06:11:36.349Z,12.97
2022-08-16T06:12:36.475Z,12.93
2022-08-16T06:13:36.375Z,13.08
2022-08-16T06:14:36.390Z,13.07
2022-08-16T06:15:36.406Z,13.07
2022-08-16T06:16:36.421Z,13.11
2022-08-16T06:17:43.164Z,13.10
2022-08-16T06:18:36.445Z,13.28
2022-08-16T06:19:36.467Z,13.17
2022-08-16T06:20:36.733Z,13.17
2022-08-16T06:21:36.710Z,13.30
2022-08-16T06:22:39.095Z,13.39
2022-08-16T06:23:36.520Z,13.39
2022-08-16T06:24:55.094Z,13.44
2022-08-16T06:25:39.018Z,13.48
2022-08-16T06:26:38.545Z,13.62
2022-08-16T06:27:39.838Z,13.63
2022-08-16T06:28:37.150Z,13.60
2022-08-16T06:29:36.605Z,13.63
2022-08-16T06:30:36.620Z,13.71
2022-08-16T06:31:46.610Z,13.77
2022-08-16T06:32:42.998Z,13.85
2022-08-16T06:33:41.404Z,13.85
2022-08-16T06:34:56.589Z,13.85
2022-08-16T06:35:41.491Z,13.85
2022-08-16T06:36:36.717Z,13.89
2022-08-16T06:37:37.310Z,13.88
2022-08-16T06:38:36.739Z,13.97
2022-08-16T06:39:49.819Z,13.96
2022-08-16T06:40:36.767Z,14.06
2022-08-16T06:41:39.609Z,14.04
2022-08-16T06:42:39.573Z,14.00
2022-08-16T06:43:36.810Z,14.00
2022-08-16T06:44:36.826Z,14.06
2022-08-16T06:45:36.849Z,14.02
2022-08-16T06:46:36.879Z,14.15
2022-08-16T06:47:52.548Z,14.18
2022-08-16T06:48:36.882Z,14.20
2022-08-16T06:49:36.897Z,14.12
2022-08-16T06:50:36.917Z,14.00
2022-08-16T06:51:46.089Z,14.20
2022-08-16T06:52:58.293Z,14.27
2022-08-16T06:53:37.089Z,14.32
2022-08-16T06:54:36.968Z,14.35
2022-08-16T06:55:38.378Z,14.35
2022-08-16T06:56:37.004Z,14.33
2022-08-16T06:57:39.848Z,14.32
2022-08-16T06:58:37.042Z,14.35
2022-08-16T06:59:48.623Z,14.27
2022-08-16T07:00:37.788Z,14.29
2022-08-16T07:01:44.961Z,14.32
2022-08-16T07:02:37.250Z,14.25
2022-08-16T07:03:55.901Z,14.28
2022-08-16T07:04:37.314Z,14.22
2022-08-16T07:05:41.863Z,14.22
2022-08-16T07:06:37.154Z,14.28
2022-08-16T07:07:37.164Z,14.27
2022-08-16T07:08:37.177Z,14.43
2022-08-16T07:09:37.191Z,14.51
2022-08-16T07:10:37.210Z,14.51
2022-08-16T07:11:45.879Z,14.68
2022-08-16T07:12:46.897Z,14.92
2022-08-16T07:14:00.790Z,14.91
2022-08-16T07:14:37.365Z,15.01
2022-08-16T07:15:37.281Z,15.02
2022-08-16T07:16:37.305Z,15.02
2022-08-16T07:17:37.312Z,15.14
2022-08-16T07:18:37.328Z,15.07
2022-08-16T07:20:03.563Z,15.16
2022-08-16T07:20:47.269Z,15.19
2022-08-16T07:21:45.899Z,15.21
2022-08-16T07:22:39.672Z,15.10
2022-08-16T07:23:39.165Z,15.09
2022-08-16T07:24:45.812Z,14.99
2022-08-16T07:25:40.347Z,14.99
2022-08-16T07:26:37.447Z,14.99
2022-08-16T07:27:37.710Z,14.98
2022-08-16T07:28:37.482Z,15.11
2022-08-16T07:29:37.490Z,15.19
2022-08-16T07:30:39.016Z,15.27
2022-08-16T07:31:38.359Z,15.25
2022-08-16T07:32:37.540Z,15.34
2022-08-16T07:33:51.803Z,15.44
2022-08-16T07:34:37.780Z,15.54
2022-08-16T07:35:37.586Z,15.59
2022-08-16T07:36:37.597Z,15.57
2022-08-16T07:37:37.671Z,15.56
2022-08-16T07:38:37.629Z,15.57
2022-08-16T07:39:43.068Z,15.68
2022-08-16T07:41:00.713Z,15.59
2022-08-16T07:41:37.676Z,15.67
2022-08-16T07:42:37.685Z,15.74
2022-08-16T07:43:40.588Z,15.67
2022-08-16T07:44:50.659Z,15.69
2022-08-16T07:45:37.741Z,15.84
2022-08-16T07:46:40.175Z,15.93
2022-08-16T07:47:37.770Z,15.93
2022-08-16T07:48:37.779Z,15.76
2022-08-16T07:49:37.799Z,15.80
2022-08-16T07:50:55.740Z,15.76
2022-08-16T07:51:37.836Z,15.75
2022-08-16T07:52:38.860Z,16.17
2022-08-16T07:53:43.395Z,16.31
2022-08-16T07:54:39.293Z,16.35
2022-08-16T07:55:45.781Z,16.35
2022-08-16T07:56:37.935Z,16.43
2022-08-16T07:57:44.381Z,16.43
2022-08-16T07:58:37.943Z,16.64
2022-08-16T07:59:42.923Z,16.68
2022-08-16T08:00:38.020Z,16.82
2022-08-16T08:01:37.986Z,16.63
2022-08-16T08:02:37.998Z,16.73
2022-08-16T08:03:39.993Z,16.61
2022-08-16T08:04:38.038Z,16.61
2022-08-16T08:05:38.041Z,16.75
2022-08-16T08:06:38.059Z,16.88
2022-08-16T08:07:38.081Z,16.83
2022-08-16T08:08:51.616Z,16.66
2022-08-16T08:09:43.413Z,16.66
2022-08-16T08:10:38.126Z,16.76
2022-08-16T08:11:38.138Z,16.94
2022-08-16T08:12:38.158Z,16.81
2022-08-16T08:13:42.788Z,16.98
2022-08-16T08:14:38.199Z,17.01
2022-08-16T08:15:38.207Z,17.15
2022-08-16T08:16:38.225Z,17.01
2022-08-16T08:18:38.268Z,17.04
2022-08-16T08:18:41.447Z,17.00
2022-08-16T08:19:40.462Z,17.18
2022-08-16T08:20:38.287Z,17.28
2022-08-16T08:22:00.636Z,17.48
2022-08-16T08:22:38.315Z,17.07
2022-08-16T08:23:42.511Z,17.22
2022-08-16T08:24:38.346Z,17.23
2022-08-16T08:25:55.050Z,17.28
2022-08-16T08:26:38.391Z,17.03
2022-08-16T08:27:38.394Z,17.14
2022-08-16T08:28:38.417Z,17.33
2022-08-16T08:29:40.633Z,17.28
2022-08-16T08:30:52.004Z,17.49
2022-08-16T08:31:38.462Z,17.51
2022-08-16T08:32:57.377Z,17.49
2022-08-16T08:33:38.820Z,17.49
2022-08-16T08:34:38.508Z,17.90
2022-08-16T08:35:38.525Z,17.89
2022-08-16T08:36:38.543Z,17.75
2022-08-16T08:37:55.191Z,18.00
2022-08-16T08:38:45.136Z,18.05
2022-08-16T08:39:38.609Z,18.02
2022-08-16T08:40:38.613Z,18.33
2022-08-16T08:41:38.627Z,18.23
2022-08-16T08:42:38.642Z,18.15
2022-08-16T08:43:41.825Z,18.14
2022-08-16T08:44:38.674Z,18.00
2022-08-16T08:45:48.878Z,18.15
2022-08-16T08:46:38.705Z,18.00
2022-08-16T08:47:38.725Z,17.77
2022-08-16T08:48:38.738Z,17.81
2022-08-16T08:49:46.514Z,17.89
2022-08-16T08:50:38.774Z,17.54
2022-08-16T08:51:38.787Z,17.52
2022-08-16T08:52:38.807Z,17.82
2022-08-16T08:53:38.826Z,17.87
2022-08-16T08:54:38.840Z,18.25
2022-08-16T08:55:38.855Z,18.76
2022-08-16T08:56:45.786Z,18.57
2022-08-16T08:57:38.891Z,18.54
2022-08-16T08:58:38.907Z,18.37
2022-08-16T08:59:40.994Z,18.21
2022-08-16T09:00:50.237Z,18.17
2022-08-16T09:01:43.007Z,18.05
2022-08-16T09:02:38.970Z,18.00
2022-08-16T09:03:39.052Z,18.29
2022-08-16T09:04:39.008Z,18.52
2022-08-16T09:05:39.027Z,18.48
2022-08-16T09:06:43.225Z,18.60
2022-08-16T09:08:00.678Z,18.72
2022-08-16T09:08:39.081Z,18.60
2022-08-16T09:09:41.227Z,18.36
2022-08-16T09:10:39.410Z,18.47
2022-08-16T09:11:40.909Z,18.18
2022-08-16T09:12:39.146Z,17.79
2022-08-16T09:13:39.162Z,18.08
2022-08-16T09:14:39.190Z,18.37
2022-08-16T09:15:39.198Z,18.39
2022-08-16T09:17:03.541Z,18.62
2022-08-16T09:17:51.725Z,18.60
2022-08-16T09:18:39.311Z,19.10
2022-08-16T09:19:40.688Z,18.18
2022-08-16T09:20:58.508Z,17.68
2022-08-16T09:21:39.350Z,17.96
2022-08-16T09:22:39.318Z,18.20
2022-08-16T09:23:39.336Z,18.62
2022-08-16T09:24:51.475Z,18.80
2022-08-16T09:25:39.366Z,18.41
2022-08-16T09:26:45.362Z,18.62
2022-08-16T09:27:56.467Z,19.04
2022-08-16T09:29:14.836Z,19.22
2022-08-16T09:29:44.536Z,19.31
2022-08-16T09:30:44.381Z,19.44
2022-08-16T09:31:41.370Z,19.55
2022-08-16T09:32:39.582Z,20.01
2022-08-16T09:33:39.803Z,20.41
2022-08-16T09:34:39.524Z,20.50
2022-08-16T09:35:39.583Z,20.55
2022-08-16T09:36:45.163Z,20.61
2022-08-16T09:37:39.573Z,20.16
2022-08-16T09:38:40.953Z,19.80
2022-08-16T09:39:41.643Z,19.76
2022-08-16T09:40:42.627Z,19.84
2022-08-16T09:41:39.642Z,19.65
2022-08-16T09:42:51.381Z,19.48
2022-08-16T09:44:00.174Z,19.43
2022-08-16T09:45:09.177Z,19.51
2022-08-16T09:45:39.728Z,19.98
2022-08-16T09:46:48.843Z,20.05
2022-08-16T09:47:57.224Z,20.38
2022-08-16T09:48:51.033Z,20.55
2022-08-16T09:49:41.032Z,20.61
2022-08-16T09:50:39.941Z,20.85
2022-08-16T09:51:39.834Z,21.13
2022-08-16T09:52:44.116Z,21.32
2022-08-16T09:53:39.873Z,21.10
2022-08-16T09:54:39.883Z,21.04
2022-08-16T09:55:44.643Z,20.89
2022-08-16T09:56:52.739Z,20.91
2022-08-16T09:57:39.936Z,21.04
2022-08-16T09:59:04.837Z,21.37
2022-08-16T09:59:42.075Z,21.16
2022-08-16T10:00:44.716Z,21.22
2022-08-16T10:01:43.672Z,21.65
2022-08-16T10:02:53.087Z,21.80
2022-08-16T10:04:02.794Z,21.86
2022-08-16T10:04:52.985Z,21.62
2022-08-16T10:05:40.088Z,21.65
2022-08-16T10:06:40.109Z,22.22
2022-08-16T10:07:45.130Z,22.33
2022-08-16T10:08:51.269Z,22.09
2022-08-16T10:09:44.867Z,21.77
2022-08-16T10:10:40.182Z,21.65
2022-08-16T10:11:50.050Z,21.88
2022-08-16T10:12:42.646Z,21.40
2022-08-16T10:13:40.737Z,21.54
2022-08-16T10:14:40.263Z,21.86
2022-08-16T10:15:40.281Z,22.05
2022-08-16T10:16:40.304Z,22.09
2022-08-16T10:17:40.331Z,22.15
2022-08-16T10:19:02.279Z,21.61
2022-08-16T10:19:40.363Z,20.70
2022-08-16T10:20:40.381Z,21.24
2022-08-16T10:21:40.401Z,21.91
2022-08-16T10:22:40.418Z,21.75
2022-08-16T10:23:40.447Z,22.28
2022-08-16T10:24:40.456Z,22.02
2022-08-16T10:27:00.649Z,21.22
2022-08-16T10:27:20.711Z,21.16
2022-08-16T10:27:47.372Z,21.82
2022-08-16T10:28:41.916Z,22.14
2022-08-16T10:30:00.317Z,22.10
2022-08-16T10:30:40.574Z,22.43
2022-08-16T10:31:44.450Z,22.46
2022-08-16T10:32:40.612Z,22.28
2022-08-16T10:33:40.641Z,22.28
2022-08-16T10:34:40.657Z,22.12
2022-08-16T10:35:46.402Z,21.34
2022-08-16T10:36:40.699Z,21.67
2022-08-16T10:37:40.716Z,21.91
2022-08-16T10:38:40.833Z,22.17
2022-08-16T10:39:42.327Z,22.31
2022-08-16T10:40:40.803Z,22.27
2022-08-16T10:41:40.801Z,22.67
2022-08-16T10:42:46.404Z,22.68
2022-08-16T10:43:40.833Z,22.83
2022-08-16T10:44:40.954Z,22.61
2022-08-16T10:45:42.010Z,22.60
2022-08-16T10:46:42.190Z,22.45
2022-08-16T10:47:40.958Z,22.14
2022-08-16T10:48:40.939Z,22.03
2022-08-16T10:49:41.237Z,22.36
2022-08-16T10:50:40.973Z,22.79
2022-08-16T10:52:02.736Z,22.14
2022-08-16T10:53:41.035Z,22.61
2022-08-16T10:55:44.106Z,22.64
2022-08-16T10:56:52.013Z,22.62
2022-08-16T10:57:41.118Z,22.80
2022-08-16T10:58:41.139Z,22.94
2022-08-16T10:59:50.802Z,22.90
2022-08-16T11:00:41.185Z,23.35
2022-08-16T11:01:44.129Z,23.23
2022-08-16T11:02:59.168Z,23.28
2022-08-16T11:03:42.676Z,23.12
2022-08-16T11:06:41.654Z,24.16
2022-08-16T11:07:43.036Z,24.22
2022-08-16T11:08:45.443Z,23.91
2022-08-16T11:09:43.961Z,23.36
2022-08-16T11:12:41.433Z,23.42
2022-08-16T11:13:58.699Z,23.65
2022-08-16T11:15:11.358Z,23.61
2022-08-16T11:15:41.780Z,23.33
2022-08-16T11:17:11.435Z,23.36
2022-08-16T11:17:44.838Z,23.53
2022-08-16T11:18:48.461Z,23.63
2022-08-16T11:20:42.905Z,23.95
2022-08-16T11:22:48.573Z,22.33
2022-08-16T11:23:57.466Z,22.79
2022-08-16T11:24:44.554Z,22.82
2022-08-16T11:26:07.339Z,23.25
2022-08-16T11:26:41.730Z,22.72
2022-08-16T11:27:41.750Z,22.65
2022-08-16T11:29:41.797Z,23.01
2022-08-16T11:30:41.813Z,23.05
2022-08-16T11:31:45.467Z,23.72
2022-08-16T11:32:41.953Z,24.09
2022-08-16T11:33:57.335Z,24.16
2022-08-16T11:35:05.893Z,24.37
2022-08-16T11:36:22.301Z,24.60
2022-08-16T11:36:53.938Z,24.13
2022-08-16T11:38:51.214Z,23.46
2022-08-16T11:39:42.060Z,23.66
2022-08-16T11:40:44.170Z,23.79
2022-08-16T11:41:43.688Z,24.05
2022-08-16T11:42:42.073Z,24.15
2022-08-16T11:43:42.097Z,24.57
2022-08-16T11:44:52.744Z,24.61
2022-08-16T11:45:42.410Z,23.93
2022-08-16T11:46:44.141Z,23.72
2022-08-16T11:47:42.239Z,23.48
2022-08-16T11:48:42.202Z,23.23
2022-08-16T11:49:42.230Z,23.66
2022-08-16T11:50:42.249Z,23.76
2022-08-16T11:51:42.269Z,23.42
2022-08-16T11:52:46.490Z,23.50
2022-08-16T11:53:42.313Z,23.68
2022-08-16T11:54:42.342Z,24.05
2022-08-16T11:55:43.995Z,24.49
2022-08-16T11:56:56.931Z,24.34
2022-08-16T11:57:42.405Z,24.21
2022-08-16T11:58:42.429Z,24.42
2022-08-16T11:59:42.445Z,24.68
2022-08-16T12:00:51.343Z,24.21
2022-08-16T12:01:44.457Z,23.42
2022-08-16T12:02:46.101Z,22.76
2022-08-16T12:03:42.557Z,22.85
2022-08-16T12:04:42.556Z,23.23
2022-08-16T12:05:42.584Z,23.38
2022-08-16T12:06:42.602Z,23.54
2022-08-16T12:07:42.621Z,24.34
2022-08-16T12:08:42.726Z,24.16
2022-08-16T12:09:43.510Z,24.24
2022-08-16T12:10:43.236Z,24.06
2022-08-16T12:11:43.771Z,23.95
2022-08-16T12:12:42.737Z,24.12
2022-08-16T12:13:42.757Z,24.27
2022-08-16T12:14:42.777Z,24.34
2022-08-16T12:15:42.802Z,24.40
2022-08-16T12:16:45.728Z,24.21
2022-08-16T12:17:42.850Z,24.22
2022-08-16T12:18:42.971Z,24.50
2022-08-16T12:19:42.885Z,22.80
2022-08-16T12:20:42.914Z,23.36
2022-08-16T12:21:58.234Z,23.69
2022-08-16T12:22:42.954Z,23.80
2022-08-16T12:23:42.975Z,24.22
2022-08-16T12:24:43.005Z,25.08
2022-08-16T12:25:43.022Z,24.13
2022-08-16T12:26:43.042Z,23.61
2022-08-16T12:27:43.069Z,23.83
2022-08-16T12:28:54.591Z,24.43
2022-08-16T12:29:43.116Z,24.06
2022-08-16T12:30:43.131Z,24.50
2022-08-16T12:32:00.596Z,24.12
2022-08-16T12:32:43.174Z,24.21
2022-08-16T12:33:44.908Z,24.83
2022-08-16T12:34:50.815Z,24.43
2022-08-16T12:35:43.238Z,23.73
2022-08-16T12:36:43.685Z,24.20
2022-08-16T12:37:43.286Z,24.49
2022-08-16T12:38:47.971Z,24.83
2022-08-16T12:39:50.563Z,24.78
2022-08-16T12:40:43.357Z,25.20
2022-08-16T12:41:45.058Z,25.15
2022-08-16T12:42:52.751Z,25.46
2022-08-16T12:43:45.306Z,25.50
2022-08-16T12:44:43.554Z,24.95
2022-08-16T12:45:43.569Z,25.21
2022-08-16T12:46:43.490Z,25.45
2022-08-16T12:47:43.509Z,25.00
2022-08-16T12:48:43.533Z,24.84
2022-08-16T12:49:43.557Z,25.25
2022-08-16T12:50:43.597Z,24.39
2022-08-16T12:51:59.674Z,24.35
2022-08-16T12:52:52.605Z,24.10
2022-08-16T12:53:43.647Z,24.49
2022-08-16T12:54:43.671Z,24.30
2022-08-16T12:55:43.908Z,25.05
2022-08-16T12:56:43.714Z,25.21
2022-08-16T12:57:43.739Z,25.02
2022-08-16T12:58:48.762Z,25.35
2022-08-16T12:59:43.790Z,25.82
2022-08-16T13:00:43.922Z,25.94
2022-08-16T13:01:43.836Z,25.24
2022-08-16T13:02:43.893Z,25.00